This is the latest recevied weather packets stored in our database for station/object W9KHP-1. If no packets are shown the sender has not sent any weather packets the latest 10 day(s).
| Time | Temp. | Humidity | Pressure | Rain* | Wind** | Luminosity | Snow |
|---|---|---|---|---|---|---|---|
| 1778113149 | 13.89° C | 71% | 1017.1 hPa | 0 mm | - | 25 W/m² | - |
| 1778112845 | 13.89° C | 69% | 1017 hPa | 0 mm | - | 30 W/m² | - |
| 1778112542 | 13.89° C | 69% | 1016.8 hPa | 0 mm | - | 38 W/m² | - |
| 1778112237 | 14.44° C | 70% | 1016.8 hPa | 0 mm | - | 42 W/m² | - |
| 1778111933 | 14.44° C | 70% | 1016.5 hPa | 0 mm | - | 52 W/m² | - |
| 1778111630 | 14.44° C | 70% | 1016.7 hPa | 0 mm | - | 51 W/m² | - |
| 1778111321 | 14.44° C | 72% | 1016.7 hPa | 0 mm | - | 44 W/m² | - |
| 1778111019 | 14.44° C | 72% | 1016.7 hPa | 0 mm | - | 54 W/m² | - |
| 1778110716 | 14.44° C | 71% | 1016.7 hPa | 0 mm | - | 64 W/m² | - |
| 1778110411 | 14.44° C | 70% | 1016.7 hPa | 0 mm | - | 58 W/m² | - |
| 1778110109 | 14.44° C | 68% | 1016.7 hPa | 0 mm | - | 65 W/m² | - |
| 1778109804 | 14.44° C | 68% | 1016.7 hPa | 0 mm | - | 76 W/m² | - |
| 1778109501 | 14.44° C | 66% | 1016.8 hPa | 0 mm | - | 80 W/m² | - |
| 1778109199 | 15° C | 65% | 1016.8 hPa | 0 mm | - | 88 W/m² | - |
| 1778108896 | 15° C | 64% | 1016.7 hPa | 0 mm | - | 95 W/m² | - |
| 1778108592 | 14.44° C | 66% | 1017 hPa | 0 mm | - | 92 W/m² | - |
| 1778108288 | 15° C | 69% | 1016.7 hPa | 0 mm | - | 87 W/m² | - |
| 1778107986 | 15° C | 70% | 1016.8 hPa | 0 mm | - | 89 W/m² | - |
| 1778107682 | 15° C | 68% | 1016.7 hPa | 0 mm | - | 95 W/m² | - |
| 1778107380 | 15° C | 68% | 1017.1 hPa | 0 mm | - | 96 W/m² | - |
| 1778107076 | 15° C | 67% | 1017.1 hPa | 0 mm | - | 104 W/m² | - |
| 1778106771 | 15° C | 68% | 1017 hPa | 0 mm | - | 108 W/m² | - |
| 1778106469 | 15° C | 68% | 1017 hPa | 0 mm | - | 112 W/m² | - |
| 1778106165 | 15° C | 67% | 1016.8 hPa | 0 mm | - | 120 W/m² | - |
| 1778105863 | 15° C | 67% | 1017.1 hPa | 0 mm | - | 118 W/m² | - |
* Rain latest hour (hover to see other rain measurements)
** Current wind speed in m/s (hover to see current wind gust speed)